Disclaimer

Please do not use the information listed here in-flight or in-navigation, as they are not provided to us by the airports but are provided by volunteers, so they might be outdated.

Search


Regions


Airport information page

Radio informations:
Tower (TWR) - 118.1 MHz
Ground (GND) - 121.7 MHz
Clearance delivery - 118.05 MHz
Approach (APP) - 120.8 MHz
RDO - 5637 MHz

Airport informations:
Latitude: 40° 31' 11.01" N
Longitude: 022° 58' 15.42" E
Elevation: 22 feet - 7 meters
Operating hours: 24 hour operations
Operating agency: Civil government, landing fees and diplomatic clearance may be required
Timezone: UTC+2(+3DT) - Last Sunday in March to last Sunday in October
Fuel: JP-4, Wide cut turbine fuel MIL Spec T-5624

Jet A1, without icing nhibitor.

115/145 octane gasoline, leaded, MIL-L-5572F (PURPLE)

80/87 octane gasoline, leaded, MIL-L-5572F (RED)

100/130 MIL Spec, low lead, aviation gasoline (BLUE)

Runway information:
10/28 - 8005 x 164 feet< - >2440 x 50 meters
16/34 - 7907 x 197 feet< - >2410 x 60 meters

Recent METARs:
LGTS 210720Z 31007KT 8000 4000W BR SCT005 14/13 Q1009 NOSIG
LGTS 210750Z 31008KT 6000 2000S BR BKN005 14/13 Q1009 NOSIG
LGTS 210820Z VRB03KT 8000 SCT006 16/14 Q1010 NOSIG

Airport on the map: